sensor_id;sensor_type;location;lat;lon;timestamp;temperature;humidity
152;DHT22;68;48.792;9.164;2022-10-16T00:01:34;16.00;72.30
152;DHT22;68;48.792;9.164;2022-10-16T00:04:01;16.20;70.40
152;DHT22;68;48.792;9.164;2022-10-16T00:06:29;16.10;74.40
152;DHT22;68;48.792;9.164;2022-10-16T00:08:58;16.10;74.30
152;DHT22;68;48.792;9.164;2022-10-16T00:11:26;16.20;74.60
152;DHT22;68;48.792;9.164;2022-10-16T00:13:57;16.20;76.70
152;DHT22;68;48.792;9.164;2022-10-16T00:16:24;16.10;78.20
152;DHT22;68;48.792;9.164;2022-10-16T00:18:51;16.00;77.10
152;DHT22;68;48.792;9.164;2022-10-16T00:21:19;16.10;74.60
152;DHT22;68;48.792;9.164;2022-10-16T00:23:49;16.10;75.70
152;DHT22;68;48.792;9.164;2022-10-16T00:26:17;16.10;73.90
152;DHT22;68;48.792;9.164;2022-10-16T00:28:45;16.20;76.10
152;DHT22;68;48.792;9.164;2022-10-16T00:31:13;16.50;78.40
152;DHT22;68;48.792;9.164;2022-10-16T00:33:40;16.60;81.80
152;DHT22;68;48.792;9.164;2022-10-16T00:36:10;16.50;84.70
152;DHT22;68;48.792;9.164;2022-10-16T00:38:37;16.20;84.00
152;DHT22;68;48.792;9.164;2022-10-16T00:41:04;16.00;80.60
152;DHT22;68;48.792;9.164;2022-10-16T00:43:39;15.80;75.50
152;DHT22;68;48.792;9.164;2022-10-16T00:46:13;15.60;71.10
152;DHT22;68;48.792;9.164;2022-10-16T00:48:42;15.70;65.50
152;DHT22;68;48.792;9.164;2022-10-16T00:51:11;15.60;66.20
152;DHT22;68;48.792;9.164;2022-10-16T00:53:38;15.50;65.70
152;DHT22;68;48.792;9.164;2022-10-16T00:56:06;15.50;64.00
152;DHT22;68;48.792;9.164;2022-10-16T00:58:33;15.40;62.60
152;DHT22;68;48.792;9.164;2022-10-16T01:01:01;15.40;62.10
152;DHT22;68;48.792;9.164;2022-10-16T01:03:30;15.50;62.40
152;DHT22;68;48.792;9.164;2022-10-16T01:06:07;15.50;64.00
152;DHT22;68;48.792;9.164;2022-10-16T01:08:45;15.50;64.10
152;DHT22;68;48.792;9.164;2022-10-16T01:11:19;15.60;64.40
152;DHT22;68;48.792;9.164;2022-10-16T01:13:53;15.70;64.90
152;DHT22;68;48.792;9.164;2022-10-16T01:16:28;15.70;65.80
152;DHT22;68;48.792;9.164;2022-10-16T01:19:01;15.70;68.10
152;DHT22;68;48.792;9.164;2022-10-16T01:21:36;15.70;68.60
152;DHT22;68;48.792;9.164;2022-10-16T01:24:08;15.80;68.00
152;DHT22;68;48.792;9.164;2022-10-16T01:29:35;15.90;71.90
152;DHT22;68;48.792;9.164;2022-10-16T01:32:10;16.00;70.80
152;DHT22;68;48.792;9.164;2022-10-16T01:34:42;15.90;73.50
152;DHT22;68;48.792;9.164;2022-10-16T01:37:14;15.80;73.90
152;DHT22;68;48.792;9.164;2022-10-16T01:39:45;15.70;71.30
152;DHT22;68;48.792;9.164;2022-10-16T01:42:16;15.70;69.30
152;DHT22;68;48.792;9.164;2022-10-16T01:44:48;15.80;67.90
152;DHT22;68;48.792;9.164;2022-10-16T01:47:17;16.00;68.80
152;DHT22;68;48.792;9.164;2022-10-16T01:49:46;15.90;73.70
152;DHT22;68;48.792;9.164;2022-10-16T01:52:16;16.00;72.30
152;DHT22;68;48.792;9.164;2022-10-16T01:54:46;16.10;72.80
152;DHT22;68;48.792;9.164;2022-10-16T01:57:15;16.10;75.90
152;DHT22;68;48.792;9.164;2022-10-16T01:59:45;16.20;75.10
152;DHT22;68;48.792;9.164;2022-10-16T02:02:15;16.20;78.40
152;DHT22;68;48.792;9.164;2022-10-16T02:04:46;16.20;79.30
152;DHT22;68;48.792;9.164;2022-10-16T02:07:14;16.20;80.70
152;DHT22;68;48.792;9.164;2022-10-16T02:09:41;16.20;80.40
152;DHT22;68;48.792;9.164;2022-10-16T02:12:11;16.30;81.00
152;DHT22;68;48.792;9.164;2022-10-16T02:14:41;16.40;84.10
152;DHT22;68;48.792;9.164;2022-10-16T02:17:12;16.50;85.30
152;DHT22;68;48.792;9.164;2022-10-16T02:19:42;16.50;87.70
152;DHT22;68;48.792;9.164;2022-10-16T02:22:16;16.40;88.50
152;DHT22;68;48.792;9.164;2022-10-16T02:24:51;16.60;88.10
152;DHT22;68;48.792;9.164;2022-10-16T02:27:24;16.70;89.00
152;DHT22;68;48.792;9.164;2022-10-16T02:29:54;16.70;89.60
152;DHT22;68;48.792;9.164;2022-10-16T02:32:28;16.80;90.80
152;DHT22;68;48.792;9.164;2022-10-16T02:34:58;16.80;91.80
152;DHT22;68;48.792;9.164;2022-10-16T02:37:27;16.90;91.30
152;DHT22;68;48.792;9.164;2022-10-16T02:39:55;16.70;91.20
152;DHT22;68;48.792;9.164;2022-10-16T02:42:28;16.50;91.00
152;DHT22;68;48.792;9.164;2022-10-16T02:44:55;16.20;89.30
152;DHT22;68;48.792;9.164;2022-10-16T02:47:21;16.20;86.60
152;DHT22;68;48.792;9.164;2022-10-16T02:49:48;16.10;84.90
152;DHT22;68;48.792;9.164;2022-10-16T02:52:16;16.00;83.10
152;DHT22;68;48.792;9.164;2022-10-16T02:54:43;16.00;80.20
152;DHT22;68;48.792;9.164;2022-10-16T02:57:10;16.10;78.40
152;DHT22;68;48.792;9.164;2022-10-16T02:59:37;16.10;80.00
152;DHT22;68;48.792;9.164;2022-10-16T03:02:04;16.10;80.70
152;DHT22;68;48.792;9.164;2022-10-16T03:04:30;16.30;79.70
152;DHT22;68;48.792;9.164;2022-10-16T03:06:57;16.20;81.60
152;DHT22;68;48.792;9.164;2022-10-16T03:09:25;16.30;80.60
152;DHT22;68;48.792;9.164;2022-10-16T03:11:52;16.20;82.70
152;DHT22;68;48.792;9.164;2022-10-16T03:14:19;16.20;81.60
152;DHT22;68;48.792;9.164;2022-10-16T03:16:45;16.30;83.00
152;DHT22;68;48.792;9.164;2022-10-16T03:19:12;16.20;83.40
152;DHT22;68;48.792;9.164;2022-10-16T03:21:39;16.10;83.20
152;DHT22;68;48.792;9.164;2022-10-16T03:24:06;16.20;80.10
152;DHT22;68;48.792;9.164;2022-10-16T03:26:34;16.10;82.80
152;DHT22;68;48.792;9.164;2022-10-16T03:29:01;16.20;82.10
152;DHT22;68;48.792;9.164;2022-10-16T03:31:28;16.30;81.70
152;DHT22;68;48.792;9.164;2022-10-16T03:33:55;16.20;84.30
152;DHT22;68;48.792;9.164;2022-10-16T03:36:22;16.10;83.70
152;DHT22;68;48.792;9.164;2022-10-16T03:38:49;15.90;80.80
152;DHT22;68;48.792;9.164;2022-10-16T03:41:15;15.70;78.40
152;DHT22;68;48.792;9.164;2022-10-16T03:43:44;15.70;75.00
152;DHT22;68;48.792;9.164;2022-10-16T03:46:10;15.90;72.50
152;DHT22;68;48.792;9.164;2022-10-16T03:48:37;15.90;73.90
152;DHT22;68;48.792;9.164;2022-10-16T03:51:05;16.10;73.30
152;DHT22;68;48.792;9.164;2022-10-16T03:53:32;16.40;76.70
152;DHT22;68;48.792;9.164;2022-10-16T03:55:59;16.30;80.30
152;DHT22;68;48.792;9.164;2022-10-16T03:58:25;16.40;83.10
152;DHT22;68;48.792;9.164;2022-10-16T04:00:53;16.60;85.10
152;DHT22;68;48.792;9.164;2022-10-16T04:03:20;16.50;88.00
152;DHT22;68;48.792;9.164;2022-10-16T04:05:48;16.60;87.10
152;DHT22;68;48.792;9.164;2022-10-16T04:08:15;16.60;89.60
152;DHT22;68;48.792;9.164;2022-10-16T04:10:42;16.60;89.00
152;DHT22;68;48.792;9.164;2022-10-16T04:13:09;16.60;90.20
152;DHT22;68;48.792;9.164;2022-10-16T04:15:36;16.60;89.60
152;DHT22;68;48.792;9.164;2022-10-16T04:18:04;16.70;90.40
152;DHT22;68;48.792;9.164;2022-10-16T04:20:32;16.60;91.40
152;DHT22;68;48.792;9.164;2022-10-16T04:22:59;16.60;90.50
152;DHT22;68;48.792;9.164;2022-10-16T04:25:25;16.70;90.80
152;DHT22;68;48.792;9.164;2022-10-16T04:27:52;16.60;91.90
152;DHT22;68;48.792;9.164;2022-10-16T04:30:20;16.80;91.40
152;DHT22;68;48.792;9.164;2022-10-16T04:32:48;16.80;92.60
152;DHT22;68;48.792;9.164;2022-10-16T04:35:16;16.90;93.20
152;DHT22;68;48.792;9.164;2022-10-16T04:37:43;16.80;93.40
152;DHT22;68;48.792;9.164;2022-10-16T04:40:10;16.80;92.80
152;DHT22;68;48.792;9.164;2022-10-16T04:42:37;16.70;92.60
152;DHT22;68;48.792;9.164;2022-10-16T04:45:05;16.70;92.00
152;DHT22;68;48.792;9.164;2022-10-16T04:47:32;16.80;92.50
152;DHT22;68;48.792;9.164;2022-10-16T04:49:59;16.60;92.10
152;DHT22;68;48.792;9.164;2022-10-16T04:52:28;16.70;91.20
152;DHT22;68;48.792;9.164;2022-10-16T04:54:57;16.50;91.50
152;DHT22;68;48.792;9.164;2022-10-16T04:57:26;16.60;90.60
152;DHT22;68;48.792;9.164;2022-10-16T04:59:53;16.50;91.40
152;DHT22;68;48.792;9.164;2022-10-16T05:02:20;16.30;91.20
152;DHT22;68;48.792;9.164;2022-10-16T05:04:47;16.20;90.10
152;DHT22;68;48.792;9.164;2022-10-16T05:07:13;16.30;88.10
152;DHT22;68;48.792;9.164;2022-10-16T05:09:42;16.30;87.80
152;DHT22;68;48.792;9.164;2022-10-16T05:12:08;16.30;88.00
152;DHT22;68;48.792;9.164;2022-10-16T05:14:35;16.20;86.90
152;DHT22;68;48.792;9.164;2022-10-16T05:17:02;16.10;85.90
152;DHT22;68;48.792;9.164;2022-10-16T05:19:29;16.00;84.20
152;DHT22;68;48.792;9.164;2022-10-16T05:21:55;15.90;83.80
152;DHT22;68;48.792;9.164;2022-10-16T05:24:22;15.90;82.30
152;DHT22;68;48.792;9.164;2022-10-16T05:26:51;15.80;80.50
152;DHT22;68;48.792;9.164;2022-10-16T05:29:18;15.80;77.40
152;DHT22;68;48.792;9.164;2022-10-16T05:31:44;15.80;75.70
152;DHT22;68;48.792;9.164;2022-10-16T05:34:11;16.00;76.40
152;DHT22;68;48.792;9.164;2022-10-16T05:36:38;16.00;77.90
152;DHT22;68;48.792;9.164;2022-10-16T05:39:05;16.10;79.30
152;DHT22;68;48.792;9.164;2022-10-16T05:41:31;16.00;82.70
152;DHT22;68;48.792;9.164;2022-10-16T05:43:59;15.90;83.70
152;DHT22;68;48.792;9.164;2022-10-16T05:46:26;16.00;80.90
152;DHT22;68;48.792;9.164;2022-10-16T05:48:53;16.10;82.80
152;DHT22;68;48.792;9.164;2022-10-16T05:51:20;16.10;83.50
152;DHT22;68;48.792;9.164;2022-10-16T05:53:46;16.10;85.30
152;DHT22;68;48.792;9.164;2022-10-16T05:56:13;16.20;86.20
152;DHT22;68;48.792;9.164;2022-10-16T05:58:40;16.20;87.00
152;DHT22;68;48.792;9.164;2022-10-16T06:01:11;16.30;89.00
152;DHT22;68;48.792;9.164;2022-10-16T06:03:39;16.50;89.40
152;DHT22;68;48.792;9.164;2022-10-16T06:06:10;16.50;90.70
152;DHT22;68;48.792;9.164;2022-10-16T06:08:36;16.50;91.50
152;DHT22;68;48.792;9.164;2022-10-16T06:11:05;16.50;91.20
152;DHT22;68;48.792;9.164;2022-10-16T06:13:32;16.40;91.20
152;DHT22;68;48.792;9.164;2022-10-16T06:16:00;16.40;91.20
152;DHT22;68;48.792;9.164;2022-10-16T06:18:29;16.60;91.40
152;DHT22;68;48.792;9.164;2022-10-16T06:20:56;16.50;91.70
152;DHT22;68;48.792;9.164;2022-10-16T06:23:24;16.70;91.70
152;DHT22;68;48.792;9.164;2022-10-16T06:25:50;16.50;92.70
152;DHT22;68;48.792;9.164;2022-10-16T06:28:17;16.60;92.40
152;DHT22;68;48.792;9.164;2022-10-16T06:30:44;16.70;92.10
152;DHT22;68;48.792;9.164;2022-10-16T06:33:11;16.70;92.40
152;DHT22;68;48.792;9.164;2022-10-16T06:35:39;16.80;92.10
152;DHT22;68;48.792;9.164;2022-10-16T06:38:06;16.70;93.00
152;DHT22;68;48.792;9.164;2022-10-16T06:40:32;16.60;91.00
152;DHT22;68;48.792;9.164;2022-10-16T06:42:59;16.70;91.40
152;DHT22;68;48.792;9.164;2022-10-16T06:45:26;16.70;91.90
152;DHT22;68;48.792;9.164;2022-10-16T06:47:53;16.90;92.30
152;DHT22;68;48.792;9.164;2022-10-16T06:50:19;17.00;93.40
152;DHT22;68;48.792;9.164;2022-10-16T06:52:47;17.00;93.60
152;DHT22;68;48.792;9.164;2022-10-16T06:55:14;17.10;93.70
152;DHT22;68;48.792;9.164;2022-10-16T06:57:42;17.00;93.70
152;DHT22;68;48.792;9.164;2022-10-16T07:00:09;17.00;93.60
152;DHT22;68;48.792;9.164;2022-10-16T07:02:36;17.00;93.70
152;DHT22;68;48.792;9.164;2022-10-16T07:05:04;17.00;93.60
152;DHT22;68;48.792;9.164;2022-10-16T07:07:30;17.00;94.30
152;DHT22;68;48.792;9.164;2022-10-16T07:09:58;17.10;94.40
152;DHT22;68;48.792;9.164;2022-10-16T07:12:25;17.10;93.50
152;DHT22;68;48.792;9.164;2022-10-16T07:14:52;17.20;93.70
152;DHT22;68;48.792;9.164;2022-10-16T07:17:20;17.20;93.90
152;DHT22;68;48.792;9.164;2022-10-16T07:19:47;17.20;93.60
152;DHT22;68;48.792;9.164;2022-10-16T07:22:13;17.20;93.90
152;DHT22;68;48.792;9.164;2022-10-16T07:24:40;17.10;93.20
152;DHT22;68;48.792;9.164;2022-10-16T07:27:08;17.00;92.90
152;DHT22;68;48.792;9.164;2022-10-16T07:29:35;16.90;91.90
152;DHT22;68;48.792;9.164;2022-10-16T07:32:02;16.80;90.60
152;DHT22;68;48.792;9.164;2022-10-16T07:34:29;16.60;89.90
152;DHT22;68;48.792;9.164;2022-10-16T07:36:55;16.60;86.30
152;DHT22;68;48.792;9.164;2022-10-16T07:39:22;16.80;87.00
152;DHT22;68;48.792;9.164;2022-10-16T07:41:49;17.00;88.80
152;DHT22;68;48.792;9.164;2022-10-16T07:44:17;17.00;88.20
152;DHT22;68;48.792;9.164;2022-10-16T07:46:44;17.00;89.60
152;DHT22;68;48.792;9.164;2022-10-16T07:49:10;16.80;89.20
152;DHT22;68;48.792;9.164;2022-10-16T07:51:37;16.80;88.00
152;DHT22;68;48.792;9.164;2022-10-16T07:54:04;17.10;88.30
152;DHT22;68;48.792;9.164;2022-10-16T07:56:32;17.20;88.20
152;DHT22;68;48.792;9.164;2022-10-16T07:58:59;17.20;88.50
152;DHT22;68;48.792;9.164;2022-10-16T08:01:27;17.20;91.10
152;DHT22;68;48.792;9.164;2022-10-16T08:03:53;17.20;90.10
152;DHT22;68;48.792;9.164;2022-10-16T08:06:21;17.30;89.70
152;DHT22;68;48.792;9.164;2022-10-16T08:08:48;17.50;90.60
152;DHT22;68;48.792;9.164;2022-10-16T08:11:15;17.40;91.80
152;DHT22;68;48.792;9.164;2022-10-16T08:13:42;17.60;92.90
152;DHT22;68;48.792;9.164;2022-10-16T08:16:09;17.80;93.60
152;DHT22;68;48.792;9.164;2022-10-16T08:18:38;17.80;93.40
152;DHT22;68;48.792;9.164;2022-10-16T08:21:07;17.80;92.40
152;DHT22;68;48.792;9.164;2022-10-16T08:23:34;17.80;92.10
152;DHT22;68;48.792;9.164;2022-10-16T08:26:05;17.90;92.70
152;DHT22;68;48.792;9.164;2022-10-16T08:28:32;18.10;93.10
152;DHT22;68;48.792;9.164;2022-10-16T08:31:07;18.20;94.30
152;DHT22;68;48.792;9.164;2022-10-16T08:33:34;18.20;94.60
152;DHT22;68;48.792;9.164;2022-10-16T08:36:03;18.20;94.50
152;DHT22;68;48.792;9.164;2022-10-16T08:38:31;18.20;94.60
152;DHT22;68;48.792;9.164;2022-10-16T08:41:09;18.30;94.50
152;DHT22;68;48.792;9.164;2022-10-16T08:43:54;18.50;94.40
152;DHT22;68;48.792;9.164;2022-10-16T08:46:36;18.50;94.20
152;DHT22;68;48.792;9.164;2022-10-16T08:49:11;18.60;94.10
152;DHT22;68;48.792;9.164;2022-10-16T08:51:40;18.70;94.10
152;DHT22;68;48.792;9.164;2022-10-16T08:54:17;18.80;93.70
152;DHT22;68;48.792;9.164;2022-10-16T08:56:47;18.80;93.90
152;DHT22;68;48.792;9.164;2022-10-16T08:59:16;18.70;93.80
152;DHT22;68;48.792;9.164;2022-10-16T09:01:46;18.80;93.60
152;DHT22;68;48.792;9.164;2022-10-16T09:04:39;18.80;94.20
152;DHT22;68;48.792;9.164;2022-10-16T09:07:15;18.90;94.10
152;DHT22;68;48.792;9.164;2022-10-16T09:09:58;18.90;94.00
152;DHT22;68;48.792;9.164;2022-10-16T09:12:30;18.90;93.90
152;DHT22;68;48.792;9.164;2022-10-16T09:15:02;19.00;93.80
152;DHT22;68;48.792;9.164;2022-10-16T09:17:40;19.00;93.50
152;DHT22;68;48.792;9.164;2022-10-16T09:20:26;19.10;93.50
152;DHT22;68;48.792;9.164;2022-10-16T09:23:08;19.20;93.20
152;DHT22;68;48.792;9.164;2022-10-16T09:25:38;19.20;93.20
152;DHT22;68;48.792;9.164;2022-10-16T09:28:07;19.20;93.20
152;DHT22;68;48.792;9.164;2022-10-16T09:30:34;19.20;93.20
152;DHT22;68;48.792;9.164;2022-10-16T09:33:01;19.20;93.70
152;DHT22;68;48.792;9.164;2022-10-16T09:35:32;19.30;93.20
152;DHT22;68;48.792;9.164;2022-10-16T09:38:01;19.20;93.80
152;DHT22;68;48.792;9.164;2022-10-16T09:40:30;19.20;92.90
152;DHT22;68;48.792;9.164;2022-10-16T09:43:02;19.20;92.10
152;DHT22;68;48.792;9.164;2022-10-16T09:45:30;19.10;92.70
152;DHT22;68;48.792;9.164;2022-10-16T09:47:56;19.10;93.70
152;DHT22;68;48.792;9.164;2022-10-16T09:50:25;19.10;93.50
152;DHT22;68;48.792;9.164;2022-10-16T09:53:04;19.20;93.80
152;DHT22;68;48.792;9.164;2022-10-16T09:55:31;19.10;93.90
152;DHT22;68;48.792;9.164;2022-10-16T09:57:58;19.30;93.40
152;DHT22;68;48.792;9.164;2022-10-16T10:00:25;19.50;93.00
152;DHT22;68;48.792;9.164;2022-10-16T10:02:52;19.50;93.10
152;DHT22;68;48.792;9.164;2022-10-16T10:05:21;19.80;92.90
152;DHT22;68;48.792;9.164;2022-10-16T10:07:55;19.90;93.00
152;DHT22;68;48.792;9.164;2022-10-16T10:10:25;20.00;91.70
152;DHT22;68;48.792;9.164;2022-10-16T10:12:53;20.10;92.60
152;DHT22;68;48.792;9.164;2022-10-16T10:15:21;20.20;92.10
152;DHT22;68;48.792;9.164;2022-10-16T10:17:51;20.20;92.40
152;DHT22;68;48.792;9.164;2022-10-16T10:20:26;20.30;91.90
152;DHT22;68;48.792;9.164;2022-10-16T10:22:54;20.40;92.20
152;DHT22;68;48.792;9.164;2022-10-16T10:25:49;20.40;88.50
152;DHT22;68;48.792;9.164;2022-10-16T10:28:38;20.50;89.30
152;DHT22;68;48.792;9.164;2022-10-16T10:31:14;20.50;86.80
152;DHT22;68;48.792;9.164;2022-10-16T10:33:47;20.50;89.30
152;DHT22;68;48.792;9.164;2022-10-16T10:36:28;20.60;88.20
152;DHT22;68;48.792;9.164;2022-10-16T10:38:58;20.80;90.20
152;DHT22;68;48.792;9.164;2022-10-16T10:42:00;20.80;89.50
152;DHT22;68;48.792;9.164;2022-10-16T10:44:42;21.00;87.70
152;DHT22;68;48.792;9.164;2022-10-16T10:47:20;21.40;84.20
152;DHT22;68;48.792;9.164;2022-10-16T10:49:57;21.50;83.40
152;DHT22;68;48.792;9.164;2022-10-16T10:52:36;21.60;83.10
152;DHT22;68;48.792;9.164;2022-10-16T10:55:14;21.60;80.60
152;DHT22;68;48.792;9.164;2022-10-16T10:57:54;21.70;84.60
152;DHT22;68;48.792;9.164;2022-10-16T11:00:25;21.70;83.50
152;DHT22;68;48.792;9.164;2022-10-16T11:02:58;21.80;80.00
152;DHT22;68;48.792;9.164;2022-10-16T11:05:38;21.70;82.50
152;DHT22;68;48.792;9.164;2022-10-16T11:08:11;21.80;81.20
152;DHT22;68;48.792;9.164;2022-10-16T11:10:46;22.00;81.50
152;DHT22;68;48.792;9.164;2022-10-16T11:13:23;21.80;83.40
152;DHT22;68;48.792;9.164;2022-10-16T11:15:55;21.50;84.90
152;DHT22;68;48.792;9.164;2022-10-16T11:18:30;21.30;85.30
152;DHT22;68;48.792;9.164;2022-10-16T11:21:02;21.30;84.80
152;DHT22;68;48.792;9.164;2022-10-16T11:23:35;20.90;86.30
152;DHT22;68;48.792;9.164;2022-10-16T11:26:11;21.30;85.30
152;DHT22;68;48.792;9.164;2022-10-16T11:28:45;21.70;84.50
152;DHT22;68;48.792;9.164;2022-10-16T11:31:16;22.00;82.30
152;DHT22;68;48.792;9.164;2022-10-16T11:33:46;22.50;80.70
152;DHT22;68;48.792;9.164;2022-10-16T11:36:17;22.30;80.10
152;DHT22;68;48.792;9.164;2022-10-16T11:38:50;22.20;82.10
152;DHT22;68;48.792;9.164;2022-10-16T11:41:24;22.30;80.70
152;DHT22;68;48.792;9.164;2022-10-16T11:44:04;21.80;83.20
152;DHT22;68;48.792;9.164;2022-10-16T11:46:34;21.70;84.10
152;DHT22;68;48.792;9.164;2022-10-16T11:49:08;21.90;84.00
152;DHT22;68;48.792;9.164;2022-10-16T11:51:39;22.00;81.30
152;DHT22;68;48.792;9.164;2022-10-16T11:54:15;22.20;81.50
152;DHT22;68;48.792;9.164;2022-10-16T11:56:48;22.60;83.10
152;DHT22;68;48.792;9.164;2022-10-16T11:59:23;22.70;80.70
152;DHT22;68;48.792;9.164;2022-10-16T12:01:56;22.80;80.00
152;DHT22;68;48.792;9.164;2022-10-16T12:04:29;23.00;80.30
152;DHT22;68;48.792;9.164;2022-10-16T12:07:03;23.40;77.80
152;DHT22;68;48.792;9.164;2022-10-16T12:09:33;23.50;77.10
152;DHT22;68;48.792;9.164;2022-10-16T12:12:01;23.50;74.90
152;DHT22;68;48.792;9.164;2022-10-16T12:14:37;23.30;73.70
152;DHT22;68;48.792;9.164;2022-10-16T12:17:24;23.20;77.80
152;DHT22;68;48.792;9.164;2022-10-16T12:19:59;23.00;77.40
152;DHT22;68;48.792;9.164;2022-10-16T12:22:28;22.90;76.80
152;DHT22;68;48.792;9.164;2022-10-16T12:24:56;22.70;77.30
152;DHT22;68;48.792;9.164;2022-10-16T12:27:27;22.90;76.90
152;DHT22;68;48.792;9.164;2022-10-16T12:29:57;22.90;75.30
152;DHT22;68;48.792;9.164;2022-10-16T12:32:29;23.10;76.00
152;DHT22;68;48.792;9.164;2022-10-16T12:34:57;23.00;75.60
152;DHT22;68;48.792;9.164;2022-10-16T12:37:26;23.10;75.90
152;DHT22;68;48.792;9.164;2022-10-16T12:39:55;23.00;77.70
152;DHT22;68;48.792;9.164;2022-10-16T12:42:31;22.90;76.40
152;DHT22;68;48.792;9.164;2022-10-16T12:45:00;22.80;76.50
152;DHT22;68;48.792;9.164;2022-10-16T12:47:47;22.70;76.60
152;DHT22;68;48.792;9.164;2022-10-16T12:50:27;22.60;75.90
152;DHT22;68;48.792;9.164;2022-10-16T12:52:53;22.60;78.70
152;DHT22;68;48.792;9.164;2022-10-16T12:55:21;22.60;78.80
152;DHT22;68;48.792;9.164;2022-10-16T12:58:06;22.60;76.80
152;DHT22;68;48.792;9.164;2022-10-16T13:00:44;22.70;76.10
152;DHT22;68;48.792;9.164;2022-10-16T13:06:22;22.60;78.90
152;DHT22;68;48.792;9.164;2022-10-16T13:09:07;22.40;77.30
152;DHT22;68;48.792;9.164;2022-10-16T13:11:50;22.30;79.20
152;DHT22;68;48.792;9.164;2022-10-16T13:14:43;22.40;80.10
152;DHT22;68;48.792;9.164;2022-10-16T13:17:21;22.40;78.90
152;DHT22;68;48.792;9.164;2022-10-16T13:19:56;22.50;78.10
152;DHT22;68;48.792;9.164;2022-10-16T13:22:30;22.70;78.00
152;DHT22;68;48.792;9.164;2022-10-16T13:25:09;22.50;76.30
152;DHT22;68;48.792;9.164;2022-10-16T13:27:45;22.40;77.50
152;DHT22;68;48.792;9.164;2022-10-16T13:30:16;22.40;76.60
152;DHT22;68;48.792;9.164;2022-10-16T13:32:48;22.40;77.10
152;DHT22;68;48.792;9.164;2022-10-16T13:35:20;22.40;77.70
152;DHT22;68;48.792;9.164;2022-10-16T13:37:47;22.30;77.70
152;DHT22;68;48.792;9.164;2022-10-16T13:40:19;22.20;78.80
152;DHT22;68;48.792;9.164;2022-10-16T13:42:46;22.20;77.80
152;DHT22;68;48.792;9.164;2022-10-16T13:45:20;22.30;78.70
152;DHT22;68;48.792;9.164;2022-10-16T13:47:49;22.30;78.30
152;DHT22;68;48.792;9.164;2022-10-16T13:50:17;22.30;78.70
152;DHT22;68;48.792;9.164;2022-10-16T13:52:44;22.30;78.60
152;DHT22;68;48.792;9.164;2022-10-16T13:55:12;22.60;77.90
152;DHT22;68;48.792;9.164;2022-10-16T13:57:39;22.90;77.70
152;DHT22;68;48.792;9.164;2022-10-16T14:00:18;22.90;77.40
152;DHT22;68;48.792;9.164;2022-10-16T14:02:45;22.50;76.10
152;DHT22;68;48.792;9.164;2022-10-16T14:05:18;22.40;77.50
152;DHT22;68;48.792;9.164;2022-10-16T14:07:49;22.40;79.20
152;DHT22;68;48.792;9.164;2022-10-16T14:10:23;22.50;80.10
152;DHT22;68;48.792;9.164;2022-10-16T14:13:03;22.50;80.90
152;DHT22;68;48.792;9.164;2022-10-16T14:15:31;22.30;82.60
152;DHT22;68;48.792;9.164;2022-10-16T14:17:59;22.20;81.70
152;DHT22;68;48.792;9.164;2022-10-16T14:20:30;22.00;81.00
152;DHT22;68;48.792;9.164;2022-10-16T14:23:01;21.90;81.90
152;DHT22;68;48.792;9.164;2022-10-16T14:25:30;21.90;80.00
152;DHT22;68;48.792;9.164;2022-10-16T14:27:58;21.90;80.20
152;DHT22;68;48.792;9.164;2022-10-16T14:30:27;21.90;82.40
152;DHT22;68;48.792;9.164;2022-10-16T14:32:56;21.90;82.30
152;DHT22;68;48.792;9.164;2022-10-16T14:35:25;22.20;84.70
152;DHT22;68;48.792;9.164;2022-10-16T14:37:54;22.20;83.00
152;DHT22;68;48.792;9.164;2022-10-16T14:40:24;22.10;78.20
152;DHT22;68;48.792;9.164;2022-10-16T14:42:51;22.10;82.20
152;DHT22;68;48.792;9.164;2022-10-16T14:45:20;22.00;80.50
152;DHT22;68;48.792;9.164;2022-10-16T14:47:52;22.00;80.80
152;DHT22;68;48.792;9.164;2022-10-16T14:50:20;21.90;80.50
152;DHT22;68;48.792;9.164;2022-10-16T14:52:47;21.90;82.80
152;DHT22;68;48.792;9.164;2022-10-16T14:55:15;21.80;83.10
152;DHT22;68;48.792;9.164;2022-10-16T14:57:43;21.80;83.10
152;DHT22;68;48.792;9.164;2022-10-16T15:00:16;21.70;81.60
152;DHT22;68;48.792;9.164;2022-10-16T15:02:44;21.80;82.30
152;DHT22;68;48.792;9.164;2022-10-16T15:05:15;21.70;81.80
152;DHT22;68;48.792;9.164;2022-10-16T15:07:42;21.80;82.60
152;DHT22;68;48.792;9.164;2022-10-16T15:10:09;21.80;82.40
152;DHT22;68;48.792;9.164;2022-10-16T15:12:37;21.80;82.60
152;DHT22;68;48.792;9.164;2022-10-16T15:15:21;21.80;82.80
152;DHT22;68;48.792;9.164;2022-10-16T15:17:50;21.70;83.30
152;DHT22;68;48.792;9.164;2022-10-16T15:20:18;21.60;83.30
152;DHT22;68;48.792;9.164;2022-10-16T15:22:44;21.60;83.40
152;DHT22;68;48.792;9.164;2022-10-16T15:25:20;21.60;83.80
152;DHT22;68;48.792;9.164;2022-10-16T15:27:53;21.60;84.40
152;DHT22;68;48.792;9.164;2022-10-16T15:30:20;21.80;84.30
152;DHT22;68;48.792;9.164;2022-10-16T15:32:47;21.70;85.10
152;DHT22;68;48.792;9.164;2022-10-16T15:35:14;21.60;85.20
152;DHT22;68;48.792;9.164;2022-10-16T15:37:40;21.60;85.60
152;DHT22;68;48.792;9.164;2022-10-16T15:40:08;21.60;85.30
152;DHT22;68;48.792;9.164;2022-10-16T15:42:35;21.40;85.30
152;DHT22;68;48.792;9.164;2022-10-16T15:45:04;21.40;85.90
152;DHT22;68;48.792;9.164;2022-10-16T15:47:32;21.40;86.00
152;DHT22;68;48.792;9.164;2022-10-16T15:49:58;21.30;86.20
152;DHT22;68;48.792;9.164;2022-10-16T15:52:25;21.30;86.20
152;DHT22;68;48.792;9.164;2022-10-16T15:54:53;21.30;86.20
152;DHT22;68;48.792;9.164;2022-10-16T15:57:21;21.30;85.60
152;DHT22;68;48.792;9.164;2022-10-16T15:59:48;21.30;85.70
152;DHT22;68;48.792;9.164;2022-10-16T16:02:16;21.40;87.30
152;DHT22;68;48.792;9.164;2022-10-16T16:04:43;21.30;86.00
152;DHT22;68;48.792;9.164;2022-10-16T16:07:10;21.40;86.10
152;DHT22;68;48.792;9.164;2022-10-16T16:09:36;21.40;86.50
152;DHT22;68;48.792;9.164;2022-10-16T16:12:03;21.30;87.40
152;DHT22;68;48.792;9.164;2022-10-16T16:14:30;21.20;88.20
152;DHT22;68;48.792;9.164;2022-10-16T16:16:57;21.10;87.80
152;DHT22;68;48.792;9.164;2022-10-16T16:19:25;21.10;87.20
152;DHT22;68;48.792;9.164;2022-10-16T16:21:52;21.40;87.50
152;DHT22;68;48.792;9.164;2022-10-16T16:24:19;21.30;86.80
152;DHT22;68;48.792;9.164;2022-10-16T16:26:46;21.20;87.50
152;DHT22;68;48.792;9.164;2022-10-16T16:29:14;21.00;87.90
152;DHT22;68;48.792;9.164;2022-10-16T16:31:41;20.70;89.50
152;DHT22;68;48.792;9.164;2022-10-16T16:34:09;20.50;90.50
152;DHT22;68;48.792;9.164;2022-10-16T16:36:37;20.40;91.10
152;DHT22;68;48.792;9.164;2022-10-16T16:39:05;20.40;91.50
152;DHT22;68;48.792;9.164;2022-10-16T16:41:33;20.70;91.30
152;DHT22;68;48.792;9.164;2022-10-16T16:44:04;20.80;90.70
152;DHT22;68;48.792;9.164;2022-10-16T16:46:31;20.30;91.10
152;DHT22;68;48.792;9.164;2022-10-16T16:48:59;20.20;92.60
152;DHT22;68;48.792;9.164;2022-10-16T16:51:26;19.90;93.10
152;DHT22;68;48.792;9.164;2022-10-16T16:53:54;19.80;93.40
152;DHT22;68;48.792;9.164;2022-10-16T16:56:22;19.60;93.70
152;DHT22;68;48.792;9.164;2022-10-16T16:58:51;19.60;93.70
152;DHT22;68;48.792;9.164;2022-10-16T17:01:19;19.50;93.60
152;DHT22;68;48.792;9.164;2022-10-16T17:03:48;19.40;93.60
152;DHT22;68;48.792;9.164;2022-10-16T17:06:15;19.40;93.70
152;DHT22;68;48.792;9.164;2022-10-16T17:08:42;19.30;93.60
152;DHT22;68;48.792;9.164;2022-10-16T17:11:14;19.30;93.30
152;DHT22;68;48.792;9.164;2022-10-16T17:13:41;19.30;93.30
152;DHT22;68;48.792;9.164;2022-10-16T17:16:08;19.30;93.50